createdAt,value
2022-09-02T00:00:18.699Z,66.08
2022-09-02T00:01:17.707Z,66.58
2022-09-02T00:02:17.854Z,67.19
2022-09-02T00:03:17.943Z,67.72
2022-09-02T00:04:17.658Z,67.22
2022-09-02T00:05:17.649Z,67.43
2022-09-02T00:06:17.644Z,67.12
2022-09-02T00:07:17.625Z,67.43
2022-09-02T00:08:17.614Z,67.52
2022-09-02T00:09:17.602Z,67.02
2022-09-02T00:10:17.590Z,67.72
2022-09-02T00:11:17.599Z,67.72
2022-09-02T00:12:17.568Z,67.43
2022-09-02T00:13:17.674Z,67.22
2022-09-02T00:14:17.547Z,67.02
2022-09-02T00:15:17.539Z,67.83
2022-09-02T00:16:17.635Z,67.93
2022-09-02T00:17:17.528Z,67.72
2022-09-02T00:18:18.137Z,67.32
2022-09-02T00:19:17.494Z,67.72
2022-09-02T00:20:17.482Z,67.43
2022-09-02T00:21:17.474Z,67.72
2022-09-02T00:22:17.468Z,67.52
2022-09-02T00:23:17.528Z,67.83
2022-09-02T00:24:17.438Z,67.72
2022-09-02T00:25:17.427Z,67.72
2022-09-02T00:26:17.415Z,67.90
2022-09-02T00:27:17.419Z,67.60
2022-09-02T00:28:17.397Z,67.43
2022-09-02T00:29:17.385Z,67.69
2022-09-02T00:30:17.371Z,67.80
2022-09-02T00:31:17.415Z,67.69
2022-09-02T00:32:17.359Z,67.80
2022-09-02T00:33:17.365Z,67.60
2022-09-02T00:34:17.328Z,67.69
2022-09-02T00:35:17.319Z,67.69
2022-09-02T00:36:17.333Z,67.80
2022-09-02T00:37:17.402Z,67.22
2022-09-02T00:38:17.295Z,67.69
2022-09-02T00:39:17.275Z,67.93
2022-09-02T00:40:17.352Z,68.00
2022-09-02T00:41:17.253Z,67.83
2022-09-02T00:42:17.253Z,67.60
2022-09-02T00:43:17.296Z,67.69
2022-09-02T00:44:17.221Z,67.80
2022-09-02T00:45:17.209Z,67.69
2022-09-02T00:46:17.210Z,67.80
2022-09-02T00:47:17.188Z,67.80
2022-09-02T00:48:17.175Z,67.60
2022-09-02T00:49:17.166Z,67.80
2022-09-02T00:50:17.153Z,67.29
2022-09-02T00:51:17.153Z,66.99
2022-09-02T00:52:17.203Z,67.80
2022-09-02T00:53:17.173Z,67.16
2022-09-02T00:54:17.108Z,66.55
2022-09-02T00:55:17.101Z,66.55
2022-09-02T00:56:17.100Z,66.86
2022-09-02T00:57:17.078Z,67.36
2022-09-02T00:58:17.065Z,67.06
2022-09-02T00:59:17.056Z,67.36
2022-09-02T01:00:17.043Z,67.76
2022-09-02T01:01:17.319Z,67.46
2022-09-02T01:02:17.201Z,67.76
2022-09-02T01:03:17.011Z,67.66
2022-09-02T01:04:16.999Z,67.46
2022-09-02T01:05:16.990Z,67.66
2022-09-02T01:06:16.978Z,67.66
2022-09-02T01:07:16.977Z,67.76
2022-09-02T01:08:16.957Z,67.39
2022-09-02T01:09:16.948Z,67.39
2022-09-02T01:10:16.932Z,67.63
2022-09-02T01:11:16.924Z,68.74
2022-09-02T01:12:16.920Z,69.07
2022-09-02T01:13:16.901Z,69.18
2022-09-02T01:14:16.897Z,69.07
2022-09-02T01:15:16.885Z,68.87
2022-09-02T01:16:16.911Z,69.27
2022-09-02T01:17:16.866Z,69.41
2022-09-02T01:18:16.844Z,70.05
2022-09-02T01:19:16.838Z,69.44
2022-09-02T01:20:16.822Z,70.25
2022-09-02T01:21:16.817Z,70.15
2022-09-02T01:22:16.810Z,70.65
2022-09-02T01:23:16.792Z,69.85
2022-09-02T01:24:16.779Z,69.74
2022-09-02T01:25:16.770Z,69.71
2022-09-02T01:26:16.756Z,69.21
2022-09-02T01:27:16.761Z,69.10
2022-09-02T01:28:16.735Z,69.01
2022-09-02T01:29:16.725Z,69.10
2022-09-02T01:30:16.718Z,69.07
2022-09-02T01:31:16.733Z,69.21
2022-09-02T01:32:16.701Z,69.01
2022-09-02T01:33:16.688Z,69.10
2022-09-02T01:34:16.670Z,69.10
2022-09-02T01:35:16.666Z,69.18
2022-09-02T01:36:16.648Z,69.01
2022-09-02T01:37:16.648Z,68.90
2022-09-02T01:38:16.626Z,68.90
2022-09-02T01:39:16.619Z,69.21
2022-09-02T01:40:16.634Z,69.01
2022-09-02T01:41:16.608Z,69.21
2022-09-02T01:42:16.584Z,69.10
2022-09-02T01:43:16.573Z,69.01
2022-09-02T01:44:16.561Z,69.44
2022-09-02T01:45:16.552Z,69.10
2022-09-02T01:46:16.598Z,69.24
2022-09-02T01:47:16.535Z,68.80
2022-09-02T01:48:21.271Z,69.31
2022-09-02T01:49:17.507Z,69.01
2022-09-02T01:50:16.496Z,69.24
2022-09-02T01:51:16.503Z,69.41
2022-09-02T01:52:16.474Z,69.44
2022-09-02T01:53:16.463Z,69.01
2022-09-02T01:54:16.451Z,69.44
2022-09-02T01:55:16.442Z,69.54
2022-09-02T01:56:16.443Z,69.34
2022-09-02T01:57:16.420Z,69.74
2022-09-02T01:58:16.407Z,69.65
2022-09-02T01:59:16.398Z,69.65
2022-09-02T02:00:16.384Z,69.65
2022-09-02T02:01:16.420Z,69.44
2022-09-02T02:02:16.432Z,69.85
2022-09-02T02:03:16.358Z,70.05
2022-09-02T02:04:16.342Z,70.05
2022-09-02T02:05:16.332Z,69.95
2022-09-02T02:06:16.332Z,69.74
2022-09-02T02:07:16.311Z,70.05
2022-09-02T02:08:16.315Z,70.05
2022-09-02T02:09:16.290Z,69.74
2022-09-02T02:10:16.276Z,69.54
2022-09-02T02:11:16.276Z,69.88
2022-09-02T02:12:16.258Z,69.57
2022-09-02T02:13:16.247Z,69.74
2022-09-02T02:14:16.235Z,69.65
2022-09-02T02:15:16.225Z,70.18
2022-09-02T02:16:16.279Z,69.78
2022-09-02T02:17:16.201Z,70.29
2022-09-02T02:18:16.189Z,70.08
2022-09-02T02:19:16.179Z,70.15
2022-09-02T02:20:16.181Z,70.29
2022-09-02T02:21:16.157Z,70.05
2022-09-02T02:22:16.144Z,70.29
2022-09-02T02:23:16.137Z,70.18
2022-09-02T02:24:16.128Z,70.08
2022-09-02T02:25:16.127Z,70.39
2022-09-02T02:26:16.101Z,69.98
2022-09-02T02:27:16.092Z,70.18
2022-09-02T02:28:16.079Z,70.08
2022-09-02T02:29:16.073Z,70.29
2022-09-02T02:30:16.070Z,70.29
2022-09-02T02:31:16.107Z,71.20
2022-09-02T02:32:16.036Z,71.20
2022-09-02T02:33:16.024Z,70.79
2022-09-02T02:34:16.013Z,71.30
2022-09-02T02:35:16.004Z,71.23
2022-09-02T02:36:16.002Z,70.18
2022-09-02T02:37:15.983Z,71.23
2022-09-02T02:38:15.973Z,71.23
2022-09-02T02:39:15.958Z,70.93
2022-09-02T02:40:16.028Z,70.62
2022-09-02T02:41:15.938Z,70.62
2022-09-02T02:42:15.926Z,71.03
2022-09-02T02:43:15.919Z,71.23
2022-09-02T02:44:15.905Z,71.13
2022-09-02T02:45:15.902Z,71.13
2022-09-02T02:46:15.947Z,71.03
2022-09-02T02:47:15.907Z,71.03
2022-09-02T02:48:15.861Z,71.44
2022-09-02T02:49:15.853Z,71.13
2022-09-02T02:50:15.850Z,71.03
2022-09-02T02:51:15.827Z,71.23
2022-09-02T02:52:15.816Z,71.53
2022-09-02T02:53:15.822Z,71.23
2022-09-02T02:54:15.796Z,71.23
2022-09-02T02:55:15.795Z,71.26
2022-09-02T02:56:15.771Z,71.33
2022-09-02T02:57:15.763Z,71.23
2022-09-02T02:58:16.630Z,71.53
2022-09-02T02:59:15.739Z,71.03
2022-09-02T03:00:15.740Z,71.64
2022-09-02T03:01:15.830Z,71.53
2022-09-02T03:02:15.766Z,71.33
2022-09-02T03:03:15.698Z,71.23
2022-09-02T03:04:15.683Z,71.64
2022-09-02T03:05:15.702Z,71.57
2022-09-02T03:06:15.660Z,71.77
2022-09-02T03:07:15.653Z,71.97
2022-09-02T03:08:15.640Z,71.64
2022-09-02T03:09:15.629Z,72.08
2022-09-02T03:10:15.629Z,71.57
2022-09-02T03:11:15.608Z,71.64
2022-09-02T03:12:15.595Z,71.57
2022-09-02T03:13:15.584Z,71.73
2022-09-02T03:14:15.573Z,71.88
2022-09-02T03:15:15.574Z,71.97
2022-09-02T03:16:15.620Z,71.88
2022-09-02T03:17:15.544Z,72.17
2022-09-02T03:18:15.571Z,71.88
2022-09-02T03:19:15.519Z,72.38
2022-09-02T03:20:15.518Z,72.38
2022-09-02T03:21:15.497Z,72.17
2022-09-02T03:22:15.499Z,72.11
2022-09-02T03:23:15.492Z,72.41
2022-09-02T03:24:15.461Z,72.61
2022-09-02T03:25:15.464Z,72.52
2022-09-02T03:26:15.442Z,72.92
2022-09-02T03:27:15.432Z,72.92
2022-09-02T03:28:15.430Z,72.61
2022-09-02T03:29:15.410Z,72.72
2022-09-02T03:30:15.408Z,72.72
2022-09-02T03:31:15.433Z,72.72
2022-09-02T03:32:15.374Z,72.61
2022-09-02T03:33:15.415Z,72.61
2022-09-02T03:34:15.353Z,72.41
2022-09-02T03:35:15.356Z,72.52
2022-09-02T03:36:15.339Z,72.41
2022-09-02T03:37:15.357Z,72.82
2022-09-02T03:38:15.309Z,72.41
2022-09-02T03:39:15.308Z,72.61
2022-09-02T03:40:15.334Z,72.41
2022-09-02T03:41:15.276Z,72.55
2022-09-02T03:42:15.265Z,72.52
2022-09-02T03:43:15.257Z,72.72
2022-09-02T03:44:15.250Z,72.92
2022-09-02T03:45:15.234Z,72.92
2022-09-02T03:46:15.313Z,72.41
2022-09-02T03:47:15.222Z,72.52
2022-09-02T03:48:15.197Z,72.72
2022-09-02T03:49:15.200Z,73.02
2022-09-02T03:50:15.175Z,72.72
2022-09-02T03:51:15.186Z,72.92
2022-09-02T03:52:15.154Z,72.52
2022-09-02T03:53:19.799Z,72.17
2022-09-02T03:54:16.141Z,72.41
2022-09-02T03:55:15.127Z,72.17
2022-09-02T03:56:15.108Z,72.08
2022-09-02T03:57:15.099Z,71.97
2022-09-02T03:58:15.087Z,71.97
2022-09-02T03:59:15.087Z,72.28
2022-09-02T04:00:15.064Z,72.17
2022-09-02T04:01:15.105Z,72.41
2022-09-02T04:02:15.289Z,72.21
2022-09-02T04:03:15.189Z,72.31
2022-09-02T04:04:16.291Z,72.52
2022-09-02T04:05:15.918Z,72.61
2022-09-02T04:06:15.000Z,72.61
2022-09-02T04:07:15.056Z,72.82
2022-09-02T04:08:14.978Z,73.22
2022-09-02T04:09:14.981Z,73.06
2022-09-02T04:10:14.957Z,73.12
2022-09-02T04:11:15.045Z,73.46
2022-09-02T04:12:14.933Z,73.66
2022-09-02T04:13:14.922Z,73.57
2022-09-02T04:14:14.924Z,73.77
2022-09-02T04:15:14.903Z,73.97
2022-09-02T04:16:14.936Z,73.97
2022-09-02T04:17:14.878Z,73.87
2022-09-02T04:18:14.928Z,73.97
2022-09-02T04:19:14.867Z,73.77
2022-09-02T04:20:14.845Z,73.43
2022-09-02T04:21:14.839Z,73.53
2022-09-02T04:22:14.823Z,73.33
2022-09-02T04:23:14.914Z,73.02
2022-09-02T04:24:14.815Z,72.92
2022-09-02T04:25:14.792Z,73.22
2022-09-02T04:26:14.778Z,73.22
2022-09-02T04:27:14.770Z,73.57
2022-09-02T04:28:14.765Z,73.57
2022-09-02T04:29:14.786Z,73.43
2022-09-02T04:30:14.739Z,73.53
2022-09-02T04:31:14.777Z,73.77
2022-09-02T04:32:14.712Z,73.63
2022-09-02T04:33:14.810Z,73.73
2022-09-02T04:34:14.759Z,73.53
2022-09-02T04:35:14.680Z,73.63
2022-09-02T04:36:14.880Z,73.43
2022-09-02T04:37:14.659Z,73.73
2022-09-02T04:38:14.645Z,74.07
2022-09-02T04:39:14.646Z,74.27
2022-09-02T04:40:14.689Z,74.38
2022-09-02T04:41:14.620Z,74.34
2022-09-02T04:42:14.603Z,74.14
2022-09-02T04:43:14.639Z,74.24
2022-09-02T04:44:14.589Z,74.14
2022-09-02T04:45:14.577Z,74.04
2022-09-02T04:46:14.625Z,74.34
2022-09-02T04:47:14.548Z,74.24
2022-09-02T04:48:14.537Z,74.14
2022-09-02T04:49:14.535Z,73.93
2022-09-02T04:50:14.514Z,73.93
2022-09-02T04:51:14.507Z,73.83
2022-09-02T04:52:14.495Z,74.24
2022-09-02T04:53:14.665Z,74.54
2022-09-02T04:54:14.483Z,74.38
2022-09-02T04:55:14.479Z,74.24
2022-09-02T04:56:14.452Z,74.54
2022-09-02T04:57:14.439Z,74.61
2022-09-02T04:58:14.429Z,74.34
2022-09-02T04:59:14.428Z,74.44
2022-09-02T05:00:14.407Z,74.85
2022-09-02T05:01:14.501Z,75.15
2022-09-02T05:02:14.525Z,75.25
2022-09-02T05:03:14.485Z,75.35
2022-09-02T05:04:14.369Z,74.61
2022-09-02T05:05:14.349Z,74.61
2022-09-02T05:06:14.335Z,74.41
2022-09-02T05:07:14.335Z,74.85
2022-09-02T05:08:14.314Z,74.71
2022-09-02T05:09:14.334Z,74.85
2022-09-02T05:10:14.293Z,75.56
2022-09-02T05:11:14.283Z,74.61
2022-09-02T05:12:14.273Z,74.61
2022-09-02T05:13:14.383Z,74.51
2022-09-02T05:14:14.261Z,74.30
2022-09-02T05:15:14.238Z,74.37
2022-09-02T05:16:14.357Z,74.68
2022-09-02T05:17:14.225Z,74.57
2022-09-02T05:18:14.204Z,74.48
2022-09-02T05:19:14.649Z,74.57
2022-09-02T05:20:14.184Z,74.77
2022-09-02T05:21:14.187Z,74.84
2022-09-02T05:22:14.162Z,74.33
2022-09-02T05:23:14.194Z,73.73
2022-09-02T05:24:14.154Z,73.53
2022-09-02T05:25:14.137Z,73.32
2022-09-02T05:26:14.116Z,73.12
2022-09-02T05:27:14.116Z,73.22
2022-09-02T05:28:14.104Z,73.02
2022-09-02T05:29:14.126Z,73.22
2022-09-02T05:30:14.076Z,73.22
2022-09-02T05:31:14.096Z,73.43
2022-09-02T05:32:14.052Z,73.43
2022-09-02T05:33:14.612Z,73.53
2022-09-02T05:34:14.038Z,71.91
2022-09-02T05:35:14.032Z,72.61
2022-09-02T05:36:14.020Z,72.92
2022-09-02T05:37:13.997Z,72.78
2022-09-02T05:38:13.985Z,73.09
2022-09-02T05:39:13.987Z,73.19
2022-09-02T05:40:14.801Z,73.29
2022-09-02T05:41:13.970Z,72.78
2022-09-02T05:42:13.944Z,72.48
2022-09-02T05:43:14.044Z,72.78
2022-09-02T05:44:13.930Z,73.29
2022-09-02T05:45:15.628Z,72.88
2022-09-02T05:46:13.975Z,72.99
2022-09-02T05:47:13.990Z,72.48
2022-09-02T05:48:13.876Z,72.41
2022-09-02T05:49:13.879Z,72.38
2022-09-02T05:50:14.372Z,72.72
2022-09-02T05:51:13.844Z,72.81
2022-09-02T05:52:13.859Z,72.92
2022-09-02T05:53:14.831Z,72.31
2022-09-02T05:54:13.809Z,72.31
2022-09-02T05:55:13.801Z,72.52
2022-09-02T05:56:13.788Z,72.41
2022-09-02T05:57:13.778Z,72.31
2022-09-02T05:58:13.776Z,72.61
2022-09-02T05:59:13.760Z,72.61
2022-09-02T06:00:17.959Z,72.92
2022-09-02T06:01:13.734Z,72.81
2022-09-02T06:02:13.870Z,73.02
2022-09-02T06:03:13.815Z,72.52
2022-09-02T06:04:13.702Z,72.92
2022-09-02T06:05:13.695Z,72.92
2022-09-02T06:06:13.679Z,72.92
2022-09-02T06:07:13.866Z,73.36
2022-09-02T06:08:13.667Z,73.32
2022-09-02T06:09:13.647Z,73.32
2022-09-02T06:10:13.638Z,73.02
2022-09-02T06:11:13.625Z,73.02
2022-09-02T06:12:13.629Z,72.81
2022-09-02T06:13:13.618Z,72.92
2022-09-02T06:14:13.591Z,72.81
2022-09-02T06:15:13.582Z,72.92
2022-09-02T06:16:13.612Z,73.02
2022-09-02T06:17:13.571Z,73.12
2022-09-02T06:18:13.551Z,72.81
2022-09-02T06:19:16.425Z,73.02
2022-09-02T06:20:14.528Z,73.12
2022-09-02T06:21:13.517Z,72.48
2022-09-02T06:22:13.517Z,72.61
2022-09-02T06:23:13.496Z,72.58
2022-09-02T06:24:13.483Z,72.78
2022-09-02T06:25:13.511Z,71.77
2022-09-02T06:26:13.461Z,72.01
2022-09-02T06:27:13.460Z,71.77
2022-09-02T06:28:13.439Z,72.58
2022-09-02T06:29:13.436Z,72.08
2022-09-02T06:30:13.416Z,71.67
2022-09-02T06:31:13.535Z,72.17
2022-09-02T06:32:13.403Z,71.57
2022-09-02T06:33:13.454Z,71.57
2022-09-02T06:34:13.408Z,71.47
2022-09-02T06:35:13.364Z,71.47
2022-09-02T06:36:13.351Z,72.24
2022-09-02T06:37:13.354Z,71.44
2022-09-02T06:38:13.329Z,71.64
2022-09-02T06:39:13.318Z,71.40
2022-09-02T06:40:13.393Z,71.80
2022-09-02T06:41:13.296Z,71.40
2022-09-02T06:42:13.298Z,71.50
2022-09-02T06:43:13.275Z,71.57
2022-09-02T06:44:15.256Z,70.96
2022-09-02T06:45:13.253Z,70.15
2022-09-02T06:46:13.267Z,70.22
2022-09-02T06:47:13.246Z,69.92
2022-09-02T06:48:13.219Z,69.18
2022-09-02T06:49:13.217Z,69.42
2022-09-02T06:50:13.196Z,67.74
2022-09-02T06:51:13.199Z,67.20
2022-09-02T06:52:13.227Z,65.16
2022-09-02T06:53:13.168Z,64.22
2022-09-02T06:54:14.014Z,63.89
2022-09-02T06:55:13.142Z,63.15
2022-09-02T06:56:13.144Z,62.72
2022-09-02T06:57:13.122Z,61.18
2022-09-02T06:58:13.111Z,59.95
2022-09-02T06:59:13.099Z,60.45
2022-09-02T07:00:13.085Z,60.42
2022-09-02T07:01:13.185Z,59.89
2022-09-02T07:02:13.327Z,59.42
2022-09-02T07:03:13.060Z,59.99
2022-09-02T07:04:13.047Z,59.59
2022-09-02T07:05:13.031Z,59.96
2022-09-02T07:06:13.033Z,58.56
2022-09-02T07:07:13.011Z,59.39
2022-09-02T07:08:13.001Z,59.29
2022-09-02T07:09:12.992Z,59.16
2022-09-02T07:10:12.983Z,59.09
2022-09-02T07:11:12.978Z,59.77
2022-09-02T07:12:12.962Z,58.13
2022-09-02T07:13:12.946Z,58.53
2022-09-02T07:14:12.937Z,58.30
2022-09-02T07:15:12.924Z,58.40
2022-09-02T07:16:12.948Z,58.00
2022-09-02T07:17:13.931Z,58.33
2022-09-02T07:18:12.892Z,59.26
2022-09-02T07:19:17.253Z,60.10
2022-09-02T07:20:13.873Z,59.92
2022-09-02T07:21:12.871Z,60.15
2022-09-02T07:22:12.848Z,60.38
2022-09-02T07:23:13.876Z,61.88
2022-09-02T07:24:12.831Z,61.79
2022-09-02T07:25:12.814Z,61.79
2022-09-02T07:26:12.816Z,61.79
2022-09-02T07:27:12.793Z,61.88
2022-09-02T07:28:12.785Z,61.96
2022-09-02T07:29:12.774Z,60.89
2022-09-02T07:30:12.788Z,59.94
2022-09-02T07:31:12.838Z,57.65
2022-09-02T07:32:12.740Z,56.39
2022-09-02T07:33:12.726Z,55.02
2022-09-02T07:34:12.717Z,53.72
2022-09-02T07:35:12.717Z,53.52
2022-09-02T07:36:12.728Z,53.34
2022-09-02T07:37:12.681Z,54.24
2022-09-02T07:38:12.671Z,54.47
2022-09-02T07:39:12.659Z,54.47
2022-09-02T07:40:12.734Z,55.17
2022-09-02T07:41:12.639Z,54.47
2022-09-02T07:42:12.631Z,55.36
2022-09-02T07:43:12.637Z,54.97
2022-09-02T07:44:12.608Z,54.97
2022-09-02T07:45:12.609Z,55.07
2022-09-02T07:46:12.698Z,54.54
2022-09-02T07:47:12.574Z,54.94
2022-09-02T07:48:12.584Z,54.19
2022-09-02T07:49:12.550Z,53.74
2022-09-02T07:50:18.811Z,52.39
2022-09-02T07:51:13.594Z,52.17
2022-09-02T07:52:12.535Z,51.45
2022-09-02T07:53:12.509Z,49.49
2022-09-02T07:54:12.509Z,49.29
2022-09-02T07:55:14.951Z,49.07
2022-09-02T07:56:12.516Z,48.99
2022-09-02T07:57:12.464Z,49.29
2022-09-02T07:58:12.455Z,48.86
2022-09-02T07:59:12.445Z,48.74
2022-09-02T08:00:12.462Z,48.02
2022-09-02T08:01:12.641Z,47.21
2022-09-02T08:02:12.485Z,46.81
2022-09-02T08:03:12.408Z,46.42
2022-09-02T08:04:12.393Z,47.01
2022-09-02T08:05:12.396Z,47.19
2022-09-02T08:06:12.389Z,46.79
2022-09-02T08:07:12.360Z,46.57
2022-09-02T08:08:12.351Z,46.27
2022-09-02T08:09:12.339Z,45.08
2022-09-02T08:10:12.347Z,45.08
2022-09-02T08:11:12.361Z,46.17
2022-09-02T08:12:12.321Z,44.98
2022-09-02T08:13:12.299Z,46.27
2022-09-02T08:14:12.314Z,45.28
2022-09-02T08:15:12.306Z,45.20
2022-09-02T08:16:12.356Z,46.12
2022-09-02T08:17:12.259Z,46.61
2022-09-02T08:18:19.095Z,46.22
2022-09-02T08:19:13.234Z,46.51
2022-09-02T08:20:12.631Z,46.00
2022-09-02T08:21:12.220Z,46.39
2022-09-02T08:22:12.217Z,44.37
2022-09-02T08:23:19.453Z,45.34
2022-09-02T08:24:13.185Z,44.42
2022-09-02T08:25:12.752Z,44.31
2022-09-02T08:26:12.165Z,43.21
2022-09-02T08:27:12.155Z,44.31
2022-09-02T08:28:12.160Z,44.80
2022-09-02T08:29:12.154Z,43.91
2022-09-02T08:30:12.169Z,43.51
2022-09-02T08:31:12.119Z,44.02
2022-09-02T08:32:12.165Z,44.32
2022-09-02T08:33:12.092Z,43.75
2022-09-02T08:34:12.083Z,44.82
2022-09-02T08:35:12.089Z,43.41
2022-09-02T08:36:12.082Z,43.02
2022-09-02T08:37:12.051Z,43.41
2022-09-02T08:38:12.043Z,44.40
2022-09-02T08:39:12.079Z,44.40
2022-09-02T08:40:12.096Z,44.80
2022-09-02T08:41:12.012Z,44.60
2022-09-02T08:42:12.003Z,43.31
2022-09-02T08:43:11.991Z,43.69
2022-09-02T08:44:11.987Z,43.49
2022-09-02T08:45:11.985Z,43.29
2022-09-02T08:46:12.212Z,42.80
2022-09-02T08:47:11.950Z,43.49
2022-09-02T08:48:11.948Z,43.47
2022-09-02T08:49:11.931Z,43.07
2022-09-02T08:50:12.862Z,42.78
2022-09-02T08:51:11.913Z,43.66
2022-09-02T08:52:15.858Z,43.25
2022-09-02T08:53:12.890Z,42.54
2022-09-02T08:54:12.140Z,42.72
2022-09-02T08:55:11.882Z,42.32
2022-09-02T08:56:11.869Z,43.23
2022-09-02T08:57:11.850Z,43.45
2022-09-02T08:58:11.842Z,42.22
2022-09-02T08:59:11.831Z,42.44
2022-09-02T09:00:11.836Z,42.42
2022-09-02T09:01:11.874Z,41.41
2022-09-02T09:02:11.870Z,40.80
2022-09-02T09:03:11.798Z,41.61
2022-09-02T09:04:11.782Z,41.22
2022-09-02T09:05:11.781Z,42.68
2022-09-02T09:06:11.786Z,41.17
2022-09-02T09:07:11.753Z,40.78
2022-09-02T09:08:14.528Z,40.66
2022-09-02T09:09:11.745Z,41.47
2022-09-02T09:10:11.733Z,41.67
2022-09-02T09:11:11.715Z,40.98
2022-09-02T09:12:11.701Z,39.62
2022-09-02T09:13:11.694Z,39.70
2022-09-02T09:14:11.685Z,40.19
2022-09-02T09:15:11.689Z,40.19
2022-09-02T09:16:11.738Z,39.70
2022-09-02T09:17:11.651Z,39.60
2022-09-02T09:18:11.645Z,37.87
2022-09-02T09:19:11.631Z,37.65
2022-09-02T09:20:11.638Z,37.76
2022-09-02T09:21:11.681Z,38.89
2022-09-02T09:22:11.604Z,38.82
2022-09-02T09:23:11.592Z,40.11
2022-09-02T09:24:11.598Z,39.87
2022-09-02T09:25:11.607Z,38.49
2022-09-02T09:26:11.563Z,39.18
2022-09-02T09:27:11.568Z,39.86
2022-09-02T09:28:11.545Z,38.79
2022-09-02T09:29:11.533Z,38.69
2022-09-02T09:30:15.114Z,39.28
2022-09-02T09:31:11.577Z,39.48
2022-09-02T09:32:11.505Z,38.69
2022-09-02T09:33:11.494Z,37.80
2022-09-02T09:34:11.490Z,38.90
2022-09-02T09:35:11.506Z,38.02
2022-09-02T09:36:13.724Z,38.71
2022-09-02T09:37:11.453Z,38.43
2022-09-02T09:38:11.445Z,39.22
2022-09-02T09:39:11.433Z,39.22
2022-09-02T09:40:11.555Z,39.22
2022-09-02T09:41:11.413Z,38.53
2022-09-02T09:42:11.406Z,38.82
2022-09-02T09:43:14.785Z,38.84
2022-09-02T09:44:11.386Z,38.94
2022-09-02T09:45:11.387Z,38.57
2022-09-02T09:46:11.406Z,38.92
2022-09-02T09:47:15.942Z,37.70
2022-09-02T09:48:12.346Z,37.62
2022-09-02T09:49:11.337Z,37.60
2022-09-02T09:50:11.352Z,37.60
2022-09-02T09:51:11.316Z,38.79
2022-09-02T09:52:11.307Z,39.00
2022-09-02T09:53:11.299Z,39.20
2022-09-02T09:54:11.287Z,38.61
2022-09-02T09:55:12.554Z,37.70
2022-09-02T09:56:11.269Z,38.20
2022-09-02T09:57:11.257Z,38.37
2022-09-02T09:58:11.246Z,36.96
2022-09-02T09:59:11.236Z,36.48
2022-09-02T10:00:11.239Z,36.68
2022-09-02T10:01:11.290Z,37.37
2022-09-02T10:02:11.281Z,37.19
2022-09-02T10:03:11.202Z,37.47
2022-09-02T10:04:42.360Z,37.47
2022-09-02T10:05:12.187Z,36.98
2022-09-02T10:06:11.171Z,36.29
2022-09-02T10:07:11.157Z,35.77
2022-09-02T10:08:15.335Z,34.46
2022-09-02T10:09:11.152Z,35.25
2022-09-02T10:10:11.145Z,34.94
2022-09-02T10:11:11.117Z,35.02
2022-09-02T10:12:11.124Z,35.02
2022-09-02T10:13:11.128Z,35.64
2022-09-02T10:14:11.091Z,37.19
2022-09-02T10:15:12.515Z,38.18
2022-09-02T10:16:11.126Z,37.37
2022-09-02T10:17:11.058Z,37.24
2022-09-02T10:18:11.052Z,36.84
2022-09-02T10:19:11.048Z,38.96
2022-09-02T10:20:11.031Z,39.32
2022-09-02T10:21:15.369Z,39.16
2022-09-02T10:22:12.008Z,39.34
2022-09-02T10:23:11.002Z,38.73
2022-09-02T10:24:11.003Z,38.21
2022-09-02T10:25:10.981Z,37.21
2022-09-02T10:26:10.973Z,37.29
2022-09-02T10:27:10.968Z,36.68
2022-09-02T10:28:10.951Z,36.78
2022-09-02T10:29:10.952Z,36.91
2022-09-02T10:30:10.932Z,37.23
2022-09-02T10:31:10.969Z,37.99
2022-09-02T10:32:10.913Z,37.79
2022-09-02T10:33:10.911Z,40.33
2022-09-02T10:34:10.925Z,41.36
2022-09-02T10:35:10.883Z,39.89
2022-09-02T10:36:15.427Z,41.38
2022-09-02T10:37:11.859Z,42.19
2022-09-02T10:38:10.851Z,42.53
2022-09-02T10:39:10.958Z,42.35
2022-09-02T10:40:10.876Z,43.16
2022-09-02T10:41:10.821Z,43.23
2022-09-02T10:42:10.810Z,44.74
2022-09-02T10:43:10.797Z,45.56
2022-09-02T10:44:10.800Z,45.86
2022-09-02T10:45:10.812Z,45.47
2022-09-02T10:46:10.769Z,45.44
2022-09-02T10:47:10.765Z,44.84
2022-09-02T10:48:10.747Z,44.24
2022-09-02T10:49:10.748Z,43.95
2022-09-02T10:50:10.725Z,43.37
2022-09-02T10:51:10.714Z,43.49
2022-09-02T10:52:10.773Z,44.11
2022-09-02T10:53:10.691Z,43.71
2022-09-02T10:54:10.698Z,43.53
2022-09-02T10:55:10.769Z,44.63
2022-09-02T10:56:10.664Z,44.83
2022-09-02T10:57:10.652Z,44.53
2022-09-02T10:58:10.639Z,43.71
2022-09-02T10:59:10.668Z,44.11
2022-09-02T11:00:10.620Z,45.48
2022-09-02T11:01:10.810Z,46.58
2022-09-02T11:02:10.596Z,45.48
2022-09-02T11:03:10.641Z,46.28
2022-09-02T11:04:10.585Z,46.28
2022-09-02T11:05:10.563Z,45.89
2022-09-02T11:06:10.555Z,46.58
2022-09-02T11:07:10.540Z,44.49
2022-09-02T11:08:10.538Z,46.38
2022-09-02T11:09:10.527Z,46.88
2022-09-02T11:10:10.513Z,48.00
2022-09-02T11:11:10.501Z,46.68
2022-09-02T11:12:10.502Z,47.30
2022-09-02T11:13:10.489Z,47.30
2022-09-02T11:14:10.478Z,46.91
2022-09-02T11:15:11.453Z,44.81
2022-09-02T11:16:10.733Z,44.03
2022-09-02T11:17:13.209Z,44.73
2022-09-02T11:18:10.492Z,44.33
2022-09-02T11:19:10.417Z,45.53
2022-09-02T11:20:10.397Z,46.31
2022-09-02T11:21:10.390Z,48.20
2022-09-02T11:22:10.374Z,47.10
2022-09-02T11:23:10.366Z,47.00
2022-09-02T11:24:10.365Z,46.91
2022-09-02T11:25:10.342Z,47.63
2022-09-02T11:26:10.358Z,47.72
2022-09-02T11:27:25.870Z,47.53
2022-09-02T11:28:11.309Z,46.53
2022-09-02T11:29:10.310Z,47.53
2022-09-02T11:30:10.285Z,46.73
2022-09-02T11:31:10.277Z,47.33
2022-09-02T11:32:10.263Z,47.13
2022-09-02T11:33:10.254Z,46.92
2022-09-02T11:34:10.252Z,46.95
2022-09-02T11:35:10.233Z,46.85
2022-09-02T11:36:10.230Z,47.35
2022-09-02T11:37:10.718Z,48.25
2022-09-02T11:38:10.220Z,47.55
2022-09-02T11:39:10.211Z,46.75
2022-09-02T11:40:33.333Z,45.75
2022-09-02T11:42:11.237Z,48.75
2022-09-02T11:43:10.139Z,48.85
2022-09-02T11:44:10.145Z,48.63
2022-09-02T11:45:10.174Z,45.23
2022-09-02T11:46:10.165Z,47.03
2022-09-02T11:47:10.097Z,47.13
2022-09-02T11:48:10.084Z,46.53
2022-09-02T11:49:10.083Z,45.53
2022-09-02T11:50:10.059Z,47.03
2022-09-02T11:51:10.095Z,46.92
2022-09-02T11:52:10.128Z,46.23
2022-09-02T11:53:10.027Z,46.53
2022-09-02T11:54:10.025Z,46.50
2022-09-02T11:55:10.004Z,44.91
2022-09-02T11:56:09.994Z,45.09
2022-09-02T11:57:09.990Z,45.01
2022-09-02T11:58:09.968Z,45.40
2022-09-02T11:59:09.971Z,45.48
2022-09-02T12:00:09.945Z,45.68
2022-09-02T12:01:13.808Z,46.19
2022-09-02T12:02:09.925Z,45.48
2022-09-02T12:03:28.386Z,45.81
2022-09-02T12:05:11.005Z,46.92
2022-09-02T12:06:10.016Z,46.55
2022-09-02T12:07:10.651Z,46.45
2022-09-02T12:08:09.855Z,46.95
2022-09-02T12:09:09.856Z,46.95
2022-09-02T12:10:09.833Z,46.57
2022-09-02T12:11:09.825Z,47.15
2022-09-02T12:12:09.814Z,47.87
2022-09-02T12:13:10.037Z,47.37
2022-09-02T12:14:09.804Z,47.47
2022-09-02T12:15:09.779Z,47.67
2022-09-02T12:16:09.821Z,47.47
2022-09-02T12:17:09.762Z,46.57
2022-09-02T12:18:09.753Z,46.25
2022-09-02T12:19:09.743Z,47.15
2022-09-02T12:20:09.806Z,47.05
2022-09-02T12:21:09.712Z,46.95
2022-09-02T12:22:10.700Z,47.15
2022-09-02T12:23:09.714Z,45.45
2022-09-02T12:24:09.689Z,46.27
2022-09-02T12:25:09.688Z,47.25
2022-09-02T12:26:14.062Z,46.95
2022-09-02T12:27:10.652Z,47.65
2022-09-02T12:28:09.653Z,46.75
2022-09-02T12:29:09.635Z,44.85
2022-09-02T12:30:09.711Z,45.67
2022-09-02T12:31:09.617Z,45.57
2022-09-02T12:32:09.589Z,45.37
2022-09-02T12:33:09.580Z,46.87
2022-09-02T12:34:09.579Z,46.97
2022-09-02T12:35:09.559Z,47.05
2022-09-02T12:36:09.546Z,46.95
2022-09-02T12:37:09.538Z,45.45
2022-09-02T12:38:09.527Z,47.15
2022-09-02T12:39:09.998Z,45.05
2022-09-02T12:40:12.961Z,45.45
2022-09-02T12:41:10.887Z,47.15
2022-09-02T12:42:09.509Z,46.35
2022-09-02T12:43:09.475Z,44.55
2022-09-02T12:44:09.469Z,45.57
2022-09-02T12:45:09.478Z,45.27
2022-09-02T12:46:09.497Z,45.67
2022-09-02T12:47:09.424Z,46.37
2022-09-02T12:48:09.429Z,45.77
2022-09-02T12:49:09.403Z,46.87
2022-09-02T12:50:09.394Z,46.57
2022-09-02T12:51:09.381Z,46.50
2022-09-02T12:52:09.388Z,46.50
2022-09-02T12:53:09.373Z,45.69
2022-09-02T12:54:09.351Z,46.99